createdAt,value
2022-09-06T00:02:45.036Z,60.32
2022-09-06T00:05:33.214Z,60.78
2022-09-06T00:08:21.215Z,61.35
2022-09-06T00:11:09.283Z,60.89
2022-09-06T00:13:57.036Z,60.94
2022-09-06T00:16:44.833Z,60.93
2022-09-06T00:19:32.616Z,60.95
2022-09-06T00:22:20.384Z,61.07
2022-09-06T00:25:08.826Z,61.21
2022-09-06T00:27:58.861Z,61.37
2022-09-06T00:30:47.077Z,61.20
2022-09-06T00:33:34.902Z,61.71
2022-09-06T00:36:23.423Z,61.71
2022-09-06T00:39:11.209Z,61.97
2022-09-06T00:41:58.969Z,61.93
2022-09-06T00:44:46.838Z,61.63
2022-09-06T00:47:36.925Z,62.35
2022-09-06T00:50:25.039Z,62.21
2022-09-06T00:53:12.922Z,62.37
2022-09-06T00:56:01.268Z,62.12
2022-09-06T00:58:49.812Z,62.26
2022-09-06T01:01:37.714Z,62.69
2022-09-06T01:04:27.381Z,62.77
2022-09-06T01:07:55.873Z,63.15
2022-09-06T01:11:33.485Z,62.71
2022-09-06T01:15:08.099Z,63.03
2022-09-06T01:18:41.534Z,63.85
2022-09-06T01:22:19.281Z,64.27
2022-09-06T01:25:33.876Z,64.51
2022-09-06T01:28:42.925Z,63.75
2022-09-06T01:31:41.625Z,63.98
2022-09-06T01:37:39.705Z,63.59
2022-09-06T01:40:28.527Z,63.41
2022-09-06T01:43:27.342Z,63.43
2022-09-06T01:46:29.894Z,63.92
2022-09-06T01:49:41.116Z,64.42
2022-09-06T01:52:34.140Z,64.51
2022-09-06T01:55:32.388Z,65.10
2022-09-06T01:58:57.622Z,65.11
2022-09-06T02:01:57.747Z,65.12
2022-09-06T02:04:52.480Z,65.40
2022-09-06T02:07:42.749Z,66.38
2022-09-06T02:10:40.215Z,66.71
2022-09-06T02:13:34.090Z,66.46
2022-09-06T02:16:26.942Z,65.09
2022-09-06T02:19:36.914Z,64.45
2022-09-06T02:22:30.616Z,63.58
2022-09-06T02:25:50.489Z,64.25
2022-09-06T02:28:38.557Z,62.55
2022-09-06T02:31:33.180Z,64.07
2022-09-06T02:34:21.858Z,63.00
2022-09-06T02:37:11.389Z,61.82
2022-09-06T02:40:00.263Z,61.58
2022-09-06T02:42:48.094Z,61.69
2022-09-06T02:45:35.823Z,62.74
2022-09-06T02:48:23.857Z,63.54
2022-09-06T02:51:11.615Z,62.36
2022-09-06T02:53:59.314Z,62.15
2022-09-06T02:56:51.559Z,61.91
2022-09-06T02:59:40.059Z,62.85
2022-09-06T03:02:27.850Z,62.80
2022-09-06T03:05:15.966Z,61.82
2022-09-06T03:08:03.842Z,61.80
2022-09-06T03:10:56.460Z,61.72
2022-09-06T03:13:44.206Z,61.83
2022-09-06T03:16:32.059Z,62.62
2022-09-06T03:19:20.165Z,62.53
2022-09-06T03:22:07.994Z,62.25
2022-09-06T03:24:55.737Z,64.21
2022-09-06T03:27:44.291Z,65.06
2022-09-06T03:30:32.078Z,67.53
2022-09-06T03:33:20.712Z,68.30
2022-09-06T03:36:08.780Z,69.41
2022-09-06T03:38:56.525Z,71.82
2022-09-06T03:41:44.286Z,73.04
2022-09-06T03:44:32.089Z,76.96
2022-09-06T03:47:20.757Z,79.52
2022-09-06T03:50:09.148Z,79.58
2022-09-06T03:52:56.871Z,79.09
2022-09-06T03:55:46.729Z,77.74
2022-09-06T03:58:34.470Z,78.90
2022-09-06T04:01:22.612Z,81.05
2022-09-06T04:04:10.513Z,82.70
2022-09-06T04:06:58.242Z,84.08
2022-09-06T04:09:45.987Z,83.06
2022-09-06T04:12:34.860Z,82.06
2022-09-06T04:15:22.613Z,80.54
2022-09-06T04:18:12.892Z,80.82
2022-09-06T04:21:00.648Z,79.60
2022-09-06T04:23:48.431Z,77.91
2022-09-06T04:26:36.488Z,77.18
2022-09-06T04:29:24.656Z,75.14
2022-09-06T04:32:12.498Z,75.14
2022-09-06T04:35:00.305Z,74.74
2022-09-06T04:37:48.065Z,74.74
2022-09-06T04:40:35.948Z,74.31
2022-09-06T04:43:24.120Z,74.64
2022-09-06T04:46:30.085Z,75.52
2022-09-06T04:49:17.843Z,74.89
2022-09-06T04:52:05.605Z,75.26
2022-09-06T04:54:53.361Z,76.10
2022-09-06T04:57:45.154Z,76.39
2022-09-06T05:00:35.762Z,76.37
2022-09-06T05:03:23.505Z,76.24
2022-09-06T05:06:18.355Z,76.84
2022-09-06T05:09:06.086Z,76.37
2022-09-06T05:11:53.815Z,76.41
2022-09-06T05:14:41.597Z,76.40
2022-09-06T05:17:29.324Z,76.48
2022-09-06T05:20:17.760Z,76.59
2022-09-06T05:23:05.590Z,77.34
2022-09-06T05:25:54.083Z,78.38
2022-09-06T05:28:41.990Z,78.11
2022-09-06T05:31:32.362Z,78.42
2022-09-06T05:34:20.142Z,79.39
2022-09-06T05:37:07.888Z,79.81
2022-09-06T05:39:55.748Z,79.84
2022-09-06T05:42:43.529Z,79.41
2022-09-06T05:45:31.520Z,78.71
2022-09-06T05:48:19.416Z,77.93
2022-09-06T05:51:12.963Z,76.92
2022-09-06T05:54:00.699Z,76.64
2022-09-06T05:56:48.610Z,75.54
2022-09-06T05:59:36.332Z,74.04
2022-09-06T06:02:24.388Z,72.41
2022-09-06T06:05:12.258Z,71.32
2022-09-06T06:07:59.997Z,70.05
2022-09-06T06:10:47.727Z,68.78
2022-09-06T06:13:39.485Z,66.87
2022-09-06T06:16:27.451Z,65.84
2022-09-06T06:19:15.350Z,62.39
2022-09-06T06:22:03.192Z,61.09
2022-09-06T06:24:50.920Z,60.90
2022-09-06T06:27:38.830Z,59.18
2022-09-06T06:30:26.535Z,58.83
2022-09-06T06:33:14.301Z,57.77
2022-09-06T06:36:13.948Z,56.91
2022-09-06T06:39:04.885Z,55.77
2022-09-06T06:41:53.414Z,54.94
2022-09-06T06:44:41.139Z,55.06
2022-09-06T06:47:30.372Z,55.71
2022-09-06T06:50:18.237Z,54.81
2022-09-06T06:53:05.973Z,54.61
2022-09-06T06:55:54.116Z,53.03
2022-09-06T06:58:41.926Z,53.80
2022-09-06T07:01:33.875Z,54.29
2022-09-06T07:04:21.880Z,53.68
2022-09-06T07:13:20.702Z,51.24
2022-09-06T07:16:15.244Z,51.66
2022-09-06T07:19:03.940Z,51.61
2022-09-06T07:21:51.746Z,51.55
2022-09-06T07:24:39.596Z,51.91
2022-09-06T07:30:37.346Z,51.64
2022-09-06T07:33:25.380Z,51.27
2022-09-06T07:36:13.136Z,49.61
2022-09-06T07:39:01.136Z,49.10
2022-09-06T07:41:49.129Z,48.92
2022-09-06T07:44:36.938Z,49.23
2022-09-06T07:50:49.255Z,48.26
2022-09-06T07:53:39.843Z,48.22
2022-09-06T07:56:27.568Z,48.82
2022-09-06T07:59:18.090Z,48.11
2022-09-06T08:02:06.314Z,47.68
2022-09-06T08:04:54.192Z,47.37
2022-09-06T08:07:41.979Z,45.79
2022-09-06T08:10:32.011Z,44.34
2022-09-06T08:13:19.867Z,43.10
2022-09-06T08:16:11.716Z,41.82
2022-09-06T08:19:02.925Z,42.02
2022-09-06T08:21:56.347Z,41.62
2022-09-06T08:24:44.207Z,43.29
2022-09-06T08:27:35.184Z,43.93
2022-09-06T08:30:23.123Z,41.98
2022-09-06T08:33:15.798Z,41.32
2022-09-06T08:36:04.947Z,40.63
2022-09-06T08:38:52.929Z,39.78
2022-09-06T08:41:56.743Z,37.85
2022-09-06T08:44:55.115Z,37.48
2022-09-06T08:47:46.260Z,36.87
2022-09-06T08:50:38.651Z,38.72
2022-09-06T08:53:27.157Z,36.80
2022-09-06T08:56:29.716Z,35.73
2022-09-06T08:59:19.940Z,35.50
2022-09-06T09:02:23.106Z,36.34
2022-09-06T09:05:23.660Z,34.36
2022-09-06T09:08:29.447Z,32.23
2022-09-06T09:11:25.268Z,31.13
2022-09-06T09:14:22.774Z,29.29
2022-09-06T09:17:24.786Z,28.77
2022-09-06T09:20:17.410Z,28.19
2022-09-06T09:23:15.495Z,26.56
2022-09-06T09:26:15.508Z,26.32
2022-09-06T09:29:15.009Z,25.94
2022-09-06T09:32:08.069Z,25.22
2022-09-06T09:35:20.136Z,24.71
2022-09-06T09:38:27.449Z,24.37
2022-09-06T09:41:36.036Z,25.15
2022-09-06T09:44:29.841Z,26.15
2022-09-06T09:47:32.604Z,26.02
2022-09-06T09:50:36.358Z,25.51
2022-09-06T09:53:29.331Z,26.04
2022-09-06T09:56:32.841Z,27.70
2022-09-06T09:59:33.800Z,30.07
2022-09-06T10:02:42.131Z,32.27
2022-09-06T10:05:34.825Z,34.31
2022-09-06T10:08:29.035Z,37.09
2022-09-06T10:11:48.600Z,39.96
2022-09-06T10:14:46.967Z,41.77
2022-09-06T10:17:37.655Z,41.53
2022-09-06T10:21:03.391Z,41.84
2022-09-06T10:24:27.952Z,42.06
2022-09-06T10:27:23.908Z,42.91
2022-09-06T10:30:13.993Z,43.11
2022-09-06T10:33:27.867Z,43.20
2022-09-06T10:36:22.650Z,42.82
2022-09-06T10:39:46.858Z,43.64
2022-09-06T10:42:47.913Z,45.34
2022-09-06T10:45:41.105Z,44.23
2022-09-06T10:48:39.359Z,43.45
2022-09-06T10:51:38.548Z,45.03
2022-09-06T10:54:26.748Z,45.08
2022-09-06T11:00:46.779Z,44.31
2022-09-06T11:04:01.914Z,44.01
2022-09-06T11:06:56.642Z,44.78
2022-09-06T11:09:53.305Z,46.99
2022-09-06T11:12:54.636Z,44.06
2022-09-06T11:15:47.781Z,45.05
2022-09-06T11:19:05.263Z,45.20
2022-09-06T11:22:01.603Z,44.70
2022-09-06T11:25:25.436Z,43.96
2022-09-06T11:28:30.644Z,43.95
2022-09-06T11:34:41.116Z,43.51
2022-09-06T11:37:35.343Z,43.91
2022-09-06T11:40:29.697Z,45.14
2022-09-06T11:43:43.936Z,44.16
2022-09-06T11:46:34.638Z,44.13
2022-09-06T11:49:33.654Z,44.61
2022-09-06T11:52:59.503Z,44.00
2022-09-06T11:56:03.729Z,44.29
2022-09-06T11:59:00.354Z,43.06
2022-09-06T12:02:42.363Z,42.53
2022-09-06T12:05:32.148Z,41.55
2022-09-06T12:08:30.884Z,41.72
2022-09-06T12:11:44.149Z,41.99
2022-09-06T12:14:43.179Z,42.37
2022-09-06T12:17:47.672Z,42.24
2022-09-06T12:20:53.130Z,41.21
2022-09-06T12:23:42.716Z,40.79
2022-09-06T12:26:56.052Z,41.50
2022-09-06T12:29:58.509Z,43.75
2022-09-06T12:32:49.640Z,42.86
2022-09-06T12:39:02.395Z,42.67
2022-09-06T12:42:06.689Z,40.74
2022-09-06T12:44:55.563Z,41.23
2022-09-06T12:47:43.335Z,41.40
2022-09-06T12:50:31.601Z,40.56
2022-09-06T12:53:24.606Z,39.99
2022-09-06T12:56:12.952Z,40.91
2022-09-06T12:59:27.019Z,41.63
2022-09-06T13:02:24.294Z,40.99
2022-09-06T13:05:13.243Z,40.03
2022-09-06T13:08:03.535Z,40.80
2022-09-06T13:10:51.627Z,40.19
2022-09-06T13:13:52.082Z,40.79
2022-09-06T13:16:50.623Z,39.58
2022-09-06T13:19:40.495Z,40.04
2022-09-06T13:22:45.493Z,39.55
2022-09-06T13:25:49.796Z,43.25
2022-09-06T13:28:37.843Z,39.33
2022-09-06T13:31:27.246Z,39.69
2022-09-06T13:34:49.576Z,38.90
2022-09-06T13:37:40.786Z,39.19
2022-09-06T13:41:09.823Z,40.77
2022-09-06T13:44:21.902Z,39.68
2022-09-06T13:47:09.713Z,38.78
2022-09-06T13:49:57.499Z,37.89
2022-09-06T13:52:47.887Z,39.13
2022-09-06T13:55:35.851Z,39.31
2022-09-06T13:58:29.816Z,37.71
2022-09-06T14:01:17.760Z,37.29
2022-09-06T14:04:11.714Z,36.85
2022-09-06T14:06:59.711Z,37.46
2022-09-06T14:09:47.814Z,37.82
2022-09-06T14:12:36.055Z,37.90
2022-09-06T14:15:23.902Z,37.68
2022-09-06T14:18:14.442Z,37.76
2022-09-06T14:21:02.611Z,36.88
2022-09-06T14:23:52.606Z,37.12
2022-09-06T14:26:40.438Z,37.07
2022-09-06T14:29:28.467Z,37.55
2022-09-06T14:32:20.523Z,36.93
2022-09-06T14:35:12.479Z,37.32
2022-09-06T14:38:00.321Z,37.26
2022-09-06T14:40:48.109Z,37.43
2022-09-06T14:48:03.225Z,37.34
2022-09-06T14:55:18.677Z,36.63
2022-09-06T14:58:06.426Z,36.90
2022-09-06T15:00:54.629Z,36.42
2022-09-06T15:03:48.522Z,37.94
2022-09-06T15:06:40.241Z,36.64
2022-09-06T15:09:31.068Z,36.69
2022-09-06T15:12:21.888Z,37.50
2022-09-06T15:15:14.545Z,37.39
2022-09-06T15:18:08.352Z,38.27
2022-09-06T15:20:58.765Z,38.34
2022-09-06T15:23:54.343Z,36.99
2022-09-06T15:26:46.107Z,37.75
2022-09-06T15:29:36.611Z,37.29
2022-09-06T15:32:27.394Z,37.82
2022-09-06T15:35:15.935Z,37.17
2022-09-06T15:38:04.588Z,36.70
2022-09-06T15:40:52.452Z,36.83
2022-09-06T15:43:47.039Z,36.72
2022-09-06T15:46:59.804Z,36.60
2022-09-06T15:49:52.549Z,37.09
2022-09-06T15:52:40.394Z,36.79
2022-09-06T15:55:46.864Z,36.92
2022-09-06T15:58:34.895Z,37.88
2022-09-06T16:01:26.995Z,37.36
2022-09-06T16:04:17.012Z,37.49
2022-09-06T16:07:05.700Z,37.63
2022-09-06T16:09:53.404Z,37.76
2022-09-06T16:12:48.609Z,37.94
2022-09-06T16:15:38.207Z,38.07
2022-09-06T16:18:33.545Z,38.12
2022-09-06T16:21:25.285Z,38.62
2022-09-06T16:24:13.931Z,38.59
2022-09-06T16:27:02.834Z,39.02
2022-09-06T16:29:50.614Z,39.49
2022-09-06T16:32:44.457Z,39.70
2022-09-06T16:35:32.181Z,39.71
2022-09-06T16:38:19.857Z,39.70
2022-09-06T16:41:21.931Z,40.51
2022-09-06T16:44:16.276Z,40.26
2022-09-06T16:47:05.286Z,40.12
2022-09-06T16:49:53.048Z,39.59
2022-09-06T16:52:41.013Z,38.83
2022-09-06T16:55:29.018Z,38.38
2022-09-06T16:58:17.946Z,39.63
2022-09-06T17:01:06.495Z,40.46
2022-09-06T17:03:54.787Z,40.22
2022-09-06T17:06:44.367Z,43.39
2022-09-06T17:09:34.379Z,45.15
2022-09-06T17:12:22.179Z,47.06
2022-09-06T17:15:10.576Z,50.87
2022-09-06T17:17:58.320Z,56.51
2022-09-06T17:21:04.628Z,63.25
2022-09-06T17:23:53.207Z,65.59
2022-09-06T17:26:41.118Z,65.97
2022-09-06T17:29:29.223Z,65.92
2022-09-06T17:32:16.932Z,67.51
2022-09-06T17:35:05.337Z,67.17
2022-09-06T17:37:56.137Z,69.53
2022-09-06T17:40:43.863Z,71.89
2022-09-06T17:43:32.487Z,75.48
2022-09-06T17:46:28.450Z,80.29
2022-09-06T17:49:18.665Z,86.64
2022-09-06T17:52:06.427Z,90.09
2022-09-06T17:54:55.006Z,91.57
2022-09-06T17:57:42.811Z,100.00
2022-09-06T18:00:30.937Z,95.82
2022-09-06T18:03:18.667Z,95.26
2022-09-06T18:06:15.899Z,95.97
2022-09-06T18:09:11.433Z,95.65
2022-09-06T18:11:59.487Z,93.44
2022-09-06T18:14:47.458Z,94.97
2022-09-06T18:17:35.212Z,100.00
2022-09-06T18:20:25.383Z,100.00
2022-09-06T18:23:13.154Z,100.00
2022-09-06T18:26:07.648Z,88.71
2022-09-06T18:28:55.498Z,96.76
2022-09-06T18:31:44.336Z,100.00
2022-09-06T18:34:32.167Z,100.00
2022-09-06T18:37:19.937Z,100.00
2022-09-06T18:40:11.376Z,100.00
2022-09-06T18:42:59.237Z,100.00
2022-09-06T18:45:47.056Z,100.00
2022-09-06T18:48:36.689Z,100.00
2022-09-06T18:51:24.540Z,100.00
2022-09-06T18:54:13.113Z,100.00
2022-09-06T18:57:00.907Z,100.00
2022-09-06T18:59:48.640Z,100.00
2022-09-06T19:02:36.381Z,100.00
2022-09-06T19:05:24.162Z,100.00
2022-09-06T19:08:12.025Z,100.00
2022-09-06T19:11:07.533Z,100.00
2022-09-06T19:13:57.821Z,100.00
2022-09-06T19:16:46.362Z,100.00
2022-09-06T19:19:34.208Z,100.00
2022-09-06T19:22:22.777Z,99.75
2022-09-06T19:25:10.904Z,100.00
2022-09-06T19:27:59.018Z,100.00
2022-09-06T19:30:46.780Z,100.00
2022-09-06T19:33:36.296Z,100.00
2022-09-06T19:36:25.987Z,100.00
2022-09-06T19:39:15.921Z,100.00
2022-09-06T19:42:04.213Z,100.00
2022-09-06T19:44:52.103Z,100.00
2022-09-06T19:47:40.055Z,100.00
2022-09-06T19:50:28.062Z,100.00
2022-09-06T19:53:15.900Z,100.00
2022-09-06T19:56:24.812Z,100.00
2022-09-06T19:59:14.083Z,98.83
2022-09-06T20:02:03.377Z,98.20
2022-09-06T20:04:51.283Z,98.10
2022-09-06T20:07:39.109Z,100.00
2022-09-06T20:10:26.838Z,96.77
2022-09-06T20:13:14.553Z,98.19
2022-09-06T20:16:08.506Z,99.04
2022-09-06T20:18:58.852Z,98.83
2022-09-06T20:21:46.723Z,99.24
2022-09-06T20:24:34.595Z,99.13
2022-09-06T20:27:22.488Z,98.40
2022-09-06T20:30:11.081Z,99.06
2022-09-06T20:33:01.899Z,99.60
2022-09-06T20:35:58.152Z,100.00
2022-09-06T20:38:47.865Z,100.00
2022-09-06T20:41:35.711Z,100.00
2022-09-06T20:44:23.524Z,100.00
2022-09-06T20:47:11.285Z,100.00
2022-09-06T20:49:59.061Z,100.00
2022-09-06T20:52:46.909Z,100.00
2022-09-06T20:55:34.707Z,100.00
2022-09-06T20:58:22.473Z,100.00
2022-09-06T21:01:22.201Z,100.00
2022-09-06T21:04:12.367Z,100.00
2022-09-06T21:07:00.221Z,100.00
2022-09-06T21:09:48.032Z,100.00
2022-09-06T21:12:35.848Z,100.00
2022-09-06T21:15:23.572Z,100.00
2022-09-06T21:18:11.326Z,100.00
2022-09-06T21:21:01.550Z,100.00
2022-09-06T21:23:49.782Z,100.00
2022-09-06T21:26:38.021Z,100.00
2022-09-06T21:29:25.751Z,100.00
2022-09-06T21:32:13.534Z,100.00
2022-09-06T21:35:01.334Z,100.00
2022-09-06T21:37:49.142Z,100.00
2022-09-06T21:40:36.899Z,100.00
2022-09-06T21:43:24.888Z,100.00
2022-09-06T21:46:20.308Z,100.00
2022-09-06T21:49:12.041Z,100.00
2022-09-06T21:52:00.060Z,100.00
2022-09-06T21:54:47.817Z,100.00
2022-09-06T21:57:35.576Z,100.00
2022-09-06T22:00:23.361Z,100.00
2022-09-06T22:03:11.070Z,100.00
2022-09-06T22:05:59.274Z,100.00
2022-09-06T22:08:47.818Z,100.00
2022-09-06T22:11:35.980Z,100.00
2022-09-06T22:14:23.762Z,100.00
2022-09-06T22:17:11.510Z,100.00
2022-09-06T22:19:59.318Z,100.00
2022-09-06T22:22:47.078Z,100.00
2022-09-06T22:25:34.990Z,100.00
2022-09-06T22:28:22.859Z,100.00
2022-09-06T22:31:10.877Z,100.00
2022-09-06T22:33:59.375Z,100.00
2022-09-06T22:36:47.261Z,100.00
2022-09-06T22:39:35.046Z,100.00
2022-09-06T22:42:22.749Z,100.00
2022-09-06T22:45:10.754Z,100.00
2022-09-06T22:47:59.277Z,100.00
2022-09-06T22:50:47.105Z,98.35
2022-09-06T22:53:35.358Z,98.82
2022-09-06T22:56:23.152Z,99.35
2022-09-06T22:59:11.038Z,100.00
2022-09-06T23:01:58.838Z,98.97
2022-09-06T23:04:46.729Z,99.02
2022-09-06T23:07:34.504Z,98.17
2022-09-06T23:10:22.909Z,96.81
2022-09-06T23:13:11.404Z,96.95
2022-09-06T23:16:08.010Z,96.57
2022-09-06T23:18:55.828Z,96.74
2022-09-06T23:21:43.628Z,96.83
2022-09-06T23:24:31.374Z,96.37
2022-09-06T23:27:19.273Z,96.84
2022-09-06T23:30:08.115Z,97.27
2022-09-06T23:32:56.425Z,97.36
2022-09-06T23:35:44.393Z,96.90
2022-09-06T23:38:34.487Z,96.99
2022-09-06T23:41:22.719Z,96.08
2022-09-06T23:44:10.546Z,97.05
2022-09-06T23:46:58.378Z,96.78
2022-09-06T23:49:46.645Z,97.54
2022-09-06T23:52:34.454Z,96.19
2022-09-06T23:55:22.185Z,96.12
2022-09-06T23:58:10.298Z,96.24
